Overview Statistics Trail Chart Weather Telemetry Raw packets
 

This is the latest recevied weather packets stored in our database for station/object K5IDL. If no packets are shown the sender has not sent any weather packets the latest 10 day(s).

<< 11 12 13 14 15 16 17 >>
Time Temp. Humidity Pressure Rain* Wind** Luminosity Snow
1788633279 36.67° C 47% 1014.9 hPa 0 mm - 431 W/m² -
1788632974 37.22° C 46% 1015.1 hPa 0 mm - 243 W/m² -
1788632673 36.11° C 47% 1014.8 hPa 0 mm - 549 W/m² -
1788632369 36.67° C 47% 1015.1 hPa 0 mm - 682 W/m² -
1788632069 36.11° C 47% 1015.3 hPa 0 mm - 691 W/m² -
1788631768 36.11° C 49% 1015.3 hPa 0 mm - 113 W/m² -
1788631463 35° C 50% 1015.1 hPa 0 mm - 689 W/m² -
1788631158 35.56° C 49% 1015.5 hPa 0 mm - 692 W/m² -
1788630857 34.44° C 51% 1015.5 hPa 0 mm - 692 W/m² -
1788630553 35.56° C 49% 1015.7 hPa 0 mm - 91 W/m² -
1788630249 36.67° C 47% 1015.9 hPa 0 mm - 663 W/m² -
1788629944 37.22° C 47% 1015.7 hPa 0 mm - 201 W/m² -
1788629640 36.67° C 46% 1015.8 hPa 0 mm - 674 W/m² -
1788629335 35.56° C 48% 1016 hPa 0 mm - 644 W/m² -
1788629033 35.56° C 49% 1016 hPa 0 mm - 651 W/m² -
1788628729 36.11° C 48% 1015.8 hPa 0 mm - 648 W/m² -
1788628426 35° C 52% 1015.7 hPa 0 mm - 634 W/m² -
1788628122 35.56° C 50% 1015.9 hPa 0 mm - 647 W/m² -
1788627818 35.56° C 51% 1016 hPa 0 mm - 629 W/m² -
1788627517 35° C 51% 1015.9 hPa 0 mm - 592 W/m² -
1788627212 36.67° C 49% 1016 hPa 0 mm - 597 W/m² -
1788626906 35.56° C 50% 1016.2 hPa 0 mm - 582 W/m² -
1788626602 36.11° C 50% 1016.2 hPa 0 mm - 578 W/m² -
1788626297 36.67° C 49% 1016.2 hPa 0 mm - 563 W/m² -
1788625993 35° C 49% 1016.2 hPa 0 mm - 557 W/m² -

* Rain latest hour (hover to see other rain measurements)
** Current wind speed in m/s (hover to see current wind gust speed)